sensor_id;sensor_type;location;lat;lon;timestamp;temperature;humidity
52979;DHT22;63430;53.186;6.598;2023-03-01T00:00:22;0.30;99.90
52979;DHT22;63430;53.186;6.598;2023-03-01T00:02:24;0.30;99.90
52979;DHT22;63430;53.186;6.598;2023-03-01T00:04:27;1.80;99.90
52979;DHT22;63430;53.186;6.598;2023-03-01T00:06:30;0.30;99.90
52979;DHT22;63430;53.186;6.598;2023-03-01T00:08:33;0.30;99.90
52979;DHT22;63430;53.186;6.598;2023-03-01T00:10:36;0.30;99.90
52979;DHT22;63430;53.186;6.598;2023-03-01T00:12:40;0.30;99.90
52979;DHT22;63430;53.186;6.598;2023-03-01T00:14:42;0.40;99.90
52979;DHT22;63430;53.186;6.598;2023-03-01T00:16:47;0.30;99.90
52979;DHT22;63430;53.186;6.598;2023-03-01T00:18:50;0.30;99.90
52979;DHT22;63430;53.186;6.598;2023-03-01T00:20:54;0.30;99.90
52979;DHT22;63430;53.186;6.598;2023-03-01T00:22:56;0.20;99.90
52979;DHT22;63430;53.186;6.598;2023-03-01T00:24:59;0.10;99.90
52979;DHT22;63430;53.186;6.598;2023-03-01T00:27:01;0.10;99.90
52979;DHT22;63430;53.186;6.598;2023-03-01T00:29:08;0.10;99.90
52979;DHT22;63430;53.186;6.598;2023-03-01T00:31:12;0.10;99.90
52979;DHT22;63430;53.186;6.598;2023-03-01T00:33:18;0.00;99.90
52979;DHT22;63430;53.186;6.598;2023-03-01T00:35:20;0.00;99.90
52979;DHT22;63430;53.186;6.598;2023-03-01T00:37:25;0.00;99.90
52979;DHT22;63430;53.186;6.598;2023-03-01T00:39:27;0.00;99.90
52979;DHT22;63430;53.186;6.598;2023-03-01T00:41:30;0.00;99.90
52979;DHT22;63430;53.186;6.598;2023-03-01T00:43:34;-0.10;99.90
52979;DHT22;63430;53.186;6.598;2023-03-01T00:45:38;-0.10;99.90
52979;DHT22;63430;53.186;6.598;2023-03-01T00:47:44;-0.20;99.90
52979;DHT22;63430;53.186;6.598;2023-03-01T00:49:49;-0.10;99.90
52979;DHT22;63430;53.186;6.598;2023-03-01T00:51:51;-0.30;99.90
52979;DHT22;63430;53.186;6.598;2023-03-01T00:53:55;-0.30;99.90
52979;DHT22;63430;53.186;6.598;2023-03-01T00:56:00;-0.30;99.90
52979;DHT22;63430;53.186;6.598;2023-03-01T00:58:02;-0.30;99.90
52979;DHT22;63430;53.186;6.598;2023-03-01T01:00:07;-0.40;99.90
52979;DHT22;63430;53.186;6.598;2023-03-01T01:02:11;-0.40;99.90
52979;DHT22;63430;53.186;6.598;2023-03-01T01:04:14;-0.40;99.90
52979;DHT22;63430;53.186;6.598;2023-03-01T01:06:21;-0.50;99.90
52979;DHT22;63430;53.186;6.598;2023-03-01T01:08:24;-0.50;99.90
52979;DHT22;63430;53.186;6.598;2023-03-01T01:10:26;-0.60;99.90
52979;DHT22;63430;53.186;6.598;2023-03-01T01:12:29;-0.60;99.90
52979;DHT22;63430;53.186;6.598;2023-03-01T01:14:32;-0.60;99.90
52979;DHT22;63430;53.186;6.598;2023-03-01T01:16:35;-0.60;99.90
52979;DHT22;63430;53.186;6.598;2023-03-01T01:18:37;-0.60;99.90
52979;DHT22;63430;53.186;6.598;2023-03-01T01:20:40;-0.70;99.90
52979;DHT22;63430;53.186;6.598;2023-03-01T01:22:45;-0.70;99.90
52979;DHT22;63430;53.186;6.598;2023-03-01T01:24:47;-0.70;99.90
52979;DHT22;63430;53.186;6.598;2023-03-01T01:26:50;-0.80;99.90
52979;DHT22;63430;53.186;6.598;2023-03-01T01:28:53;-0.80;99.90
52979;DHT22;63430;53.186;6.598;2023-03-01T01:30:56;-0.80;99.90
52979;DHT22;63430;53.186;6.598;2023-03-01T01:33:01;-0.80;99.90
52979;DHT22;63430;53.186;6.598;2023-03-01T01:35:04;-0.80;99.90
52979;DHT22;63430;53.186;6.598;2023-03-01T01:37:07;-0.80;99.90
52979;DHT22;63430;53.186;6.598;2023-03-01T01:39:13;-0.80;99.90
52979;DHT22;63430;53.186;6.598;2023-03-01T01:41:15;-0.80;99.90
52979;DHT22;63430;53.186;6.598;2023-03-01T01:43:21;-0.80;99.90
52979;DHT22;63430;53.186;6.598;2023-03-01T01:45:30;-0.80;99.90
52979;DHT22;63430;53.186;6.598;2023-03-01T01:47:33;-0.80;99.90
52979;DHT22;63430;53.186;6.598;2023-03-01T01:49:37;-0.80;99.90
52979;DHT22;63430;53.186;6.598;2023-03-01T01:51:44;-0.80;99.90
52979;DHT22;63430;53.186;6.598;2023-03-01T01:53:53;-0.70;99.90
52979;DHT22;63430;53.186;6.598;2023-03-01T01:56:02;-0.80;99.90
52979;DHT22;63430;53.186;6.598;2023-03-01T01:58:08;-1.20;99.90
52979;DHT22;63430;53.186;6.598;2023-03-01T02:00:16;-0.80;99.90
52979;DHT22;63430;53.186;6.598;2023-03-01T02:02:21;-0.80;99.90
52979;DHT22;63430;53.186;6.598;2023-03-01T02:04:33;-0.50;99.90
52979;DHT22;63430;53.186;6.598;2023-03-01T02:06:39;-0.70;99.90
52979;DHT22;63430;53.186;6.598;2023-03-01T02:08:45;-0.80;99.90
52979;DHT22;63430;53.186;6.598;2023-03-01T02:10:49;0.10;99.90
52979;DHT22;63430;53.186;6.598;2023-03-01T02:12:55;-0.80;99.90
52979;DHT22;63430;53.186;6.598;2023-03-01T02:15:00;-0.80;99.90
52979;DHT22;63430;53.186;6.598;2023-03-01T02:17:02;-0.80;99.90
52979;DHT22;63430;53.186;6.598;2023-03-01T02:19:05;-0.80;99.90
52979;DHT22;63430;53.186;6.598;2023-03-01T02:21:17;-0.60;99.90
52979;DHT22;63430;53.186;6.598;2023-03-01T02:23:24;-0.90;99.90
52979;DHT22;63430;53.186;6.598;2023-03-01T02:25:40;-0.90;99.90
52979;DHT22;63430;53.186;6.598;2023-03-01T02:27:51;-0.90;99.90
52979;DHT22;63430;53.186;6.598;2023-03-01T02:29:59;-0.90;99.90
52979;DHT22;63430;53.186;6.598;2023-03-01T02:32:03;-0.10;99.90
52979;DHT22;63430;53.186;6.598;2023-03-01T02:34:08;-0.90;99.90
52979;DHT22;63430;53.186;6.598;2023-03-01T02:36:17;-0.90;99.90
52979;DHT22;63430;53.186;6.598;2023-03-01T02:38:22;-1.00;99.90
52979;DHT22;63430;53.186;6.598;2023-03-01T02:40:25;-0.20;99.90
52979;DHT22;63430;53.186;6.598;2023-03-01T02:42:31;-1.00;99.90
52979;DHT22;63430;53.186;6.598;2023-03-01T02:44:36;-1.00;99.90
52979;DHT22;63430;53.186;6.598;2023-03-01T02:46:46;-1.00;99.90
52979;DHT22;63430;53.186;6.598;2023-03-01T02:48:52;-1.00;99.90
52979;DHT22;63430;53.186;6.598;2023-03-01T02:51:04;-1.10;99.90
52979;DHT22;63430;53.186;6.598;2023-03-01T02:53:10;-1.10;99.90
52979;DHT22;63430;53.186;6.598;2023-03-01T02:55:16;-1.10;99.90
52979;DHT22;63430;53.186;6.598;2023-03-01T02:57:19;-1.20;99.90
52979;DHT22;63430;53.186;6.598;2023-03-01T02:59:28;-1.20;99.90
52979;DHT22;63430;53.186;6.598;2023-03-01T03:01:33;-1.10;99.90
52979;DHT22;63430;53.186;6.598;2023-03-01T03:03:45;-1.20;99.90
52979;DHT22;63430;53.186;6.598;2023-03-01T03:05:48;-1.20;99.90
52979;DHT22;63430;53.186;6.598;2023-03-01T03:07:51;-0.50;99.90
52979;DHT22;63430;53.186;6.598;2023-03-01T03:09:57;-1.20;99.90
52979;DHT22;63430;53.186;6.598;2023-03-01T03:12:00;-1.20;99.90
52979;DHT22;63430;53.186;6.598;2023-03-01T03:14:03;-0.40;99.90
52979;DHT22;63430;53.186;6.598;2023-03-01T03:16:09;-1.20;99.90
52979;DHT22;63430;53.186;6.598;2023-03-01T03:18:15;-1.20;99.90
52979;DHT22;63430;53.186;6.598;2023-03-01T03:20:23;-1.30;99.90
52979;DHT22;63430;53.186;6.598;2023-03-01T03:22:27;-1.30;99.90
52979;DHT22;63430;53.186;6.598;2023-03-01T03:24:31;-1.30;99.90
52979;DHT22;63430;53.186;6.598;2023-03-01T03:26:40;-1.30;99.90
52979;DHT22;63430;53.186;6.598;2023-03-01T03:28:43;-1.30;99.90
52979;DHT22;63430;53.186;6.598;2023-03-01T03:30:46;-1.30;99.90
52979;DHT22;63430;53.186;6.598;2023-03-01T03:32:49;-1.30;99.90
52979;DHT22;63430;53.186;6.598;2023-03-01T03:34:54;-1.40;99.90
52979;DHT22;63430;53.186;6.598;2023-03-01T03:37:00;-1.40;99.90
52979;DHT22;63430;53.186;6.598;2023-03-01T03:39:02;-1.40;99.90
52979;DHT22;63430;53.186;6.598;2023-03-01T03:41:07;-1.40;99.90
52979;DHT22;63430;53.186;6.598;2023-03-01T03:43:13;-1.40;99.90
52979;DHT22;63430;53.186;6.598;2023-03-01T03:45:16;-1.40;99.90
52979;DHT22;63430;53.186;6.598;2023-03-01T03:47:18;-1.40;99.90
52979;DHT22;63430;53.186;6.598;2023-03-01T03:49:21;-1.50;99.90
52979;DHT22;63430;53.186;6.598;2023-03-01T03:51:24;-1.50;99.90
52979;DHT22;63430;53.186;6.598;2023-03-01T03:53:29;-1.50;99.90
52979;DHT22;63430;53.186;6.598;2023-03-01T03:55:32;-1.60;99.90
52979;DHT22;63430;53.186;6.598;2023-03-01T03:57:36;-1.40;99.90
52979;DHT22;63430;53.186;6.598;2023-03-01T03:59:39;-0.40;99.90
52979;DHT22;63430;53.186;6.598;2023-03-01T04:01:42;-1.70;99.90
52979;DHT22;63430;53.186;6.598;2023-03-01T04:03:46;-1.80;99.90
52979;DHT22;63430;53.186;6.598;2023-03-01T04:05:49;-1.80;99.90
52979;DHT22;63430;53.186;6.598;2023-03-01T04:07:56;-1.80;99.90
52979;DHT22;63430;53.186;6.598;2023-03-01T04:10:11;-0.60;99.90
52979;DHT22;63430;53.186;6.598;2023-03-01T04:12:14;-1.80;99.90
52979;DHT22;63430;53.186;6.598;2023-03-01T04:14:16;-1.80;99.90
52979;DHT22;63430;53.186;6.598;2023-03-01T04:16:19;-1.90;99.90
52979;DHT22;63430;53.186;6.598;2023-03-01T04:18:24;-1.90;99.90
52979;DHT22;63430;53.186;6.598;2023-03-01T04:20:29;-1.90;99.90
52979;DHT22;63430;53.186;6.598;2023-03-01T04:22:32;-1.90;99.90
52979;DHT22;63430;53.186;6.598;2023-03-01T04:24:35;-1.90;99.90
52979;DHT22;63430;53.186;6.598;2023-03-01T04:26:47;-1.90;99.90
52979;DHT22;63430;53.186;6.598;2023-03-01T04:28:51;-1.90;99.90
52979;DHT22;63430;53.186;6.598;2023-03-01T04:30:55;-2.00;99.90
52979;DHT22;63430;53.186;6.598;2023-03-01T04:32:57;-2.00;99.90
52979;DHT22;63430;53.186;6.598;2023-03-01T04:35:00;-2.00;99.90
52979;DHT22;63430;53.186;6.598;2023-03-01T04:37:02;-2.00;99.90
52979;DHT22;63430;53.186;6.598;2023-03-01T04:39:12;-2.00;99.90
52979;DHT22;63430;53.186;6.598;2023-03-01T04:41:16;-2.00;99.90
52979;DHT22;63430;53.186;6.598;2023-03-01T04:43:22;-2.10;99.90
52979;DHT22;63430;53.186;6.598;2023-03-01T04:45:24;-2.10;99.90
52979;DHT22;63430;53.186;6.598;2023-03-01T04:47:27;-2.10;99.90
52979;DHT22;63430;53.186;6.598;2023-03-01T04:49:29;-2.20;99.90
52979;DHT22;63430;53.186;6.598;2023-03-01T04:51:31;-2.20;99.90
52979;DHT22;63430;53.186;6.598;2023-03-01T04:53:35;-2.20;99.90
52979;DHT22;63430;53.186;6.598;2023-03-01T04:55:40;-2.20;99.90
52979;DHT22;63430;53.186;6.598;2023-03-01T04:57:43;-2.60;99.90
52979;DHT22;63430;53.186;6.598;2023-03-01T04:59:48;-2.20;99.90
52979;DHT22;63430;53.186;6.598;2023-03-01T05:01:52;-2.20;99.90
52979;DHT22;63430;53.186;6.598;2023-03-01T05:03:54;-2.20;99.90
52979;DHT22;63430;53.186;6.598;2023-03-01T05:05:58;-2.20;99.90
52979;DHT22;63430;53.186;6.598;2023-03-01T05:08:04;-2.20;99.90
52979;DHT22;63430;53.186;6.598;2023-03-01T05:10:08;-2.20;99.90
52979;DHT22;63430;53.186;6.598;2023-03-01T05:12:11;-2.30;99.90
52979;DHT22;63430;53.186;6.598;2023-03-01T05:14:15;-2.30;99.90
52979;DHT22;63430;53.186;6.598;2023-03-01T05:16:21;-2.30;99.90
52979;DHT22;63430;53.186;6.598;2023-03-01T05:18:24;-1.20;99.90
52979;DHT22;63430;53.186;6.598;2023-03-01T05:20:30;-2.30;99.90
52979;DHT22;63430;53.186;6.598;2023-03-01T05:22:33;-2.30;99.90
52979;DHT22;63430;53.186;6.598;2023-03-01T05:24:36;-2.30;99.90
52979;DHT22;63430;53.186;6.598;2023-03-01T05:26:38;-1.20;99.90
52979;DHT22;63430;53.186;6.598;2023-03-01T05:28:44;-2.30;99.90
52979;DHT22;63430;53.186;6.598;2023-03-01T05:30:46;-2.30;99.90
52979;DHT22;63430;53.186;6.598;2023-03-01T05:32:51;-1.40;99.90
52979;DHT22;63430;53.186;6.598;2023-03-01T05:35:00;-2.30;99.90
52979;DHT22;63430;53.186;6.598;2023-03-01T05:37:03;-2.30;99.90
52979;DHT22;63430;53.186;6.598;2023-03-01T05:39:11;-2.40;99.90
52979;DHT22;63430;53.186;6.598;2023-03-01T05:41:14;-2.40;99.90
52979;DHT22;63430;53.186;6.598;2023-03-01T05:43:19;-2.40;99.90
52979;DHT22;63430;53.186;6.598;2023-03-01T05:45:22;-2.40;99.90
52979;DHT22;63430;53.186;6.598;2023-03-01T05:47:25;-1.20;99.90
52979;DHT22;63430;53.186;6.598;2023-03-01T05:49:31;-2.40;99.90
52979;DHT22;63430;53.186;6.598;2023-03-01T05:51:34;-2.50;99.90
52979;DHT22;63430;53.186;6.598;2023-03-01T05:53:37;-2.50;99.90
52979;DHT22;63430;53.186;6.598;2023-03-01T05:55:40;-2.50;99.90
52979;DHT22;63430;53.186;6.598;2023-03-01T05:57:42;-2.50;99.90
52979;DHT22;63430;53.186;6.598;2023-03-01T05:59:45;-2.50;99.90
52979;DHT22;63430;53.186;6.598;2023-03-01T06:01:48;-2.60;99.90
52979;DHT22;63430;53.186;6.598;2023-03-01T06:03:51;-2.50;99.90
52979;DHT22;63430;53.186;6.598;2023-03-01T06:05:58;-2.50;99.90
52979;DHT22;63430;53.186;6.598;2023-03-01T06:08:01;-2.60;99.90
52979;DHT22;63430;53.186;6.598;2023-03-01T06:10:06;-1.80;99.90
52979;DHT22;63430;53.186;6.598;2023-03-01T06:12:09;-2.60;99.90
52979;DHT22;63430;53.186;6.598;2023-03-01T06:14:15;-2.60;99.90
52979;DHT22;63430;53.186;6.598;2023-03-01T06:16:17;-2.60;99.90
52979;DHT22;63430;53.186;6.598;2023-03-01T06:18:20;-2.60;99.90
52979;DHT22;63430;53.186;6.598;2023-03-01T06:20:25;-1.00;99.90
52979;DHT22;63430;53.186;6.598;2023-03-01T06:22:31;-2.70;99.90
52979;DHT22;63430;53.186;6.598;2023-03-01T06:24:34;-2.70;99.90
52979;DHT22;63430;53.186;6.598;2023-03-01T06:26:38;-2.70;99.90
52979;DHT22;63430;53.186;6.598;2023-03-01T06:28:53;-2.70;99.90
52979;DHT22;63430;53.186;6.598;2023-03-01T06:30:56;-2.70;99.90
52979;DHT22;63430;53.186;6.598;2023-03-01T06:33:00;-2.60;99.90
52979;DHT22;63430;53.186;6.598;2023-03-01T06:35:06;-2.60;99.90
52979;DHT22;63430;53.186;6.598;2023-03-01T06:37:08;-2.60;99.90
52979;DHT22;63430;53.186;6.598;2023-03-01T06:39:13;-2.70;99.90
52979;DHT22;63430;53.186;6.598;2023-03-01T06:41:21;-2.60;99.90
52979;DHT22;63430;53.186;6.598;2023-03-01T06:43:24;-2.60;99.90
52979;DHT22;63430;53.186;6.598;2023-03-01T06:45:26;-2.60;99.90
52979;DHT22;63430;53.186;6.598;2023-03-01T06:47:29;-2.60;99.90
52979;DHT22;63430;53.186;6.598;2023-03-01T06:49:32;-2.60;99.90
52979;DHT22;63430;53.186;6.598;2023-03-01T06:51:40;-2.60;99.90
52979;DHT22;63430;53.186;6.598;2023-03-01T06:53:43;-2.60;99.90
52979;DHT22;63430;53.186;6.598;2023-03-01T06:55:54;-2.50;99.90
52979;DHT22;63430;53.186;6.598;2023-03-01T06:57:57;-2.50;99.90
52979;DHT22;63430;53.186;6.598;2023-03-01T07:00:00;-2.50;99.90
52979;DHT22;63430;53.186;6.598;2023-03-01T07:02:02;-2.50;99.90
52979;DHT22;63430;53.186;6.598;2023-03-01T07:04:06;-0.80;99.90
52979;DHT22;63430;53.186;6.598;2023-03-01T07:06:08;-1.80;99.90
52979;DHT22;63430;53.186;6.598;2023-03-01T07:08:11;-2.30;99.90
52979;DHT22;63430;53.186;6.598;2023-03-01T07:10:13;-2.30;99.90
52979;DHT22;63430;53.186;6.598;2023-03-01T07:12:27;-2.20;99.90
52979;DHT22;63430;53.186;6.598;2023-03-01T07:14:30;-2.20;99.90
52979;DHT22;63430;53.186;6.598;2023-03-01T07:16:32;-2.10;99.90
52979;DHT22;63430;53.186;6.598;2023-03-01T07:18:36;-2.10;99.90
52979;DHT22;63430;53.186;6.598;2023-03-01T07:20:38;-1.10;99.90
52979;DHT22;63430;53.186;6.598;2023-03-01T07:22:48;-2.00;99.90
52979;DHT22;63430;53.186;6.598;2023-03-01T07:24:50;-1.00;99.90
52979;DHT22;63430;53.186;6.598;2023-03-01T07:26:53;-1.90;99.90
52979;DHT22;63430;53.186;6.598;2023-03-01T07:29:09;-1.80;99.90
52979;DHT22;63430;53.186;6.598;2023-03-01T07:31:11;-1.70;99.90
52979;DHT22;63430;53.186;6.598;2023-03-01T07:33:14;-1.40;99.90
52979;DHT22;63430;53.186;6.598;2023-03-01T07:35:16;-0.50;99.90
52979;DHT22;63430;53.186;6.598;2023-03-01T07:37:19;-1.40;99.90
52979;DHT22;63430;53.186;6.598;2023-03-01T07:39:21;-1.30;99.90
52979;DHT22;63430;53.186;6.598;2023-03-01T07:41:27;-1.20;99.90
52979;DHT22;63430;53.186;6.598;2023-03-01T07:43:30;-1.10;99.90
52979;DHT22;63430;53.186;6.598;2023-03-01T07:45:35;-1.10;99.90
52979;DHT22;63430;53.186;6.598;2023-03-01T07:47:38;-0.90;99.90
52979;DHT22;63430;53.186;6.598;2023-03-01T07:49:40;0.40;99.90
52979;DHT22;63430;53.186;6.598;2023-03-01T07:51:43;-0.90;99.90
52979;DHT22;63430;53.186;6.598;2023-03-01T07:53:46;-0.80;99.90
52979;DHT22;63430;53.186;6.598;2023-03-01T07:55:49;-0.70;99.90
52979;DHT22;63430;53.186;6.598;2023-03-01T07:57:52;-0.60;99.90
52979;DHT22;63430;53.186;6.598;2023-03-01T07:59:54;-0.50;99.90
52979;DHT22;63430;53.186;6.598;2023-03-01T08:02:00;-0.50;99.90
52979;DHT22;63430;53.186;6.598;2023-03-01T08:04:02;-0.40;99.90
52979;DHT22;63430;53.186;6.598;2023-03-01T08:06:09;-0.30;99.90
52979;DHT22;63430;53.186;6.598;2023-03-01T08:08:11;-0.20;99.90
52979;DHT22;63430;53.186;6.598;2023-03-01T08:10:17;-0.10;99.90
52979;DHT22;63430;53.186;6.598;2023-03-01T08:12:20;0.00;99.90
52979;DHT22;63430;53.186;6.598;2023-03-01T08:14:22;0.10;99.90
52979;DHT22;63430;53.186;6.598;2023-03-01T08:16:25;0.20;99.90
52979;DHT22;63430;53.186;6.598;2023-03-01T08:18:30;0.30;99.90
52979;DHT22;63430;53.186;6.598;2023-03-01T08:20:33;0.40;99.90
52979;DHT22;63430;53.186;6.598;2023-03-01T08:22:35;1.70;99.90
52979;DHT22;63430;53.186;6.598;2023-03-01T08:24:38;0.50;99.90
52979;DHT22;63430;53.186;6.598;2023-03-01T08:26:41;0.60;99.90
52979;DHT22;63430;53.186;6.598;2023-03-01T08:28:43;0.70;99.90
52979;DHT22;63430;53.186;6.598;2023-03-01T08:30:46;1.50;99.90
52979;DHT22;63430;53.186;6.598;2023-03-01T08:32:49;0.90;99.90
52979;DHT22;63430;53.186;6.598;2023-03-01T08:34:54;0.10;99.90
52979;DHT22;63430;53.186;6.598;2023-03-01T08:36:57;1.10;99.90
52979;DHT22;63430;53.186;6.598;2023-03-01T08:39:00;1.30;99.90
52979;DHT22;63430;53.186;6.598;2023-03-01T08:41:08;1.30;99.90
52979;DHT22;63430;53.186;6.598;2023-03-01T08:43:10;1.30;99.90
52979;DHT22;63430;53.186;6.598;2023-03-01T08:45:13;1.40;99.90
52979;DHT22;63430;53.186;6.598;2023-03-01T08:47:20;1.50;99.90
52979;DHT22;63430;53.186;6.598;2023-03-01T08:49:23;1.60;99.90
52979;DHT22;63430;53.186;6.598;2023-03-01T08:51:28;1.70;99.90
52979;DHT22;63430;53.186;6.598;2023-03-01T08:53:31;1.80;99.90
52979;DHT22;63430;53.186;6.598;2023-03-01T08:55:34;1.90;99.90
52979;DHT22;63430;53.186;6.598;2023-03-01T08:57:36;2.00;99.90
52979;DHT22;63430;53.186;6.598;2023-03-01T08:59:39;2.10;99.90
52979;DHT22;63430;53.186;6.598;2023-03-01T09:01:48;2.20;99.90
52979;DHT22;63430;53.186;6.598;2023-03-01T09:03:51;2.30;99.90
52979;DHT22;63430;53.186;6.598;2023-03-01T09:06:00;2.40;99.90
52979;DHT22;63430;53.186;6.598;2023-03-01T09:08:07;2.50;99.90
52979;DHT22;63430;53.186;6.598;2023-03-01T09:10:11;2.60;99.90
52979;DHT22;63430;53.186;6.598;2023-03-01T09:12:13;2.70;99.90
52979;DHT22;63430;53.186;6.598;2023-03-01T09:14:16;2.80;99.90
52979;DHT22;63430;53.186;6.598;2023-03-01T09:16:21;2.90;99.90
52979;DHT22;63430;53.186;6.598;2023-03-01T09:18:24;3.00;99.90
52979;DHT22;63430;53.186;6.598;2023-03-01T09:20:27;3.10;99.90
52979;DHT22;63430;53.186;6.598;2023-03-01T09:22:29;3.20;99.90
52979;DHT22;63430;53.186;6.598;2023-03-01T09:24:34;3.30;99.90
52979;DHT22;63430;53.186;6.598;2023-03-01T09:26:37;3.40;99.90
52979;DHT22;63430;53.186;6.598;2023-03-01T09:28:40;3.50;99.90
52979;DHT22;63430;53.186;6.598;2023-03-01T09:30:46;3.60;99.90
52979;DHT22;63430;53.186;6.598;2023-03-01T09:32:49;3.60;99.90
52979;DHT22;63430;53.186;6.598;2023-03-01T09:34:51;3.70;99.90
52979;DHT22;63430;53.186;6.598;2023-03-01T09:37:05;3.80;99.90
52979;DHT22;63430;53.186;6.598;2023-03-01T09:39:11;3.90;99.90
52979;DHT22;63430;53.186;6.598;2023-03-01T09:41:28;4.00;99.90
52979;DHT22;63430;53.186;6.598;2023-03-01T09:43:40;4.10;99.90
52979;DHT22;63430;53.186;6.598;2023-03-01T09:45:45;4.20;99.90
52979;DHT22;63430;53.186;6.598;2023-03-01T09:47:56;4.30;99.90
52979;DHT22;63430;53.186;6.598;2023-03-01T09:50:05;4.40;99.90
52979;DHT22;63430;53.186;6.598;2023-03-01T09:52:19;4.50;99.90
52979;DHT22;63430;53.186;6.598;2023-03-01T09:54:23;4.60;99.90
52979;DHT22;63430;53.186;6.598;2023-03-01T09:56:32;4.70;99.90
52979;DHT22;63430;53.186;6.598;2023-03-01T09:58:39;4.80;99.90
52979;DHT22;63430;53.186;6.598;2023-03-01T10:00:46;4.90;99.90
52979;DHT22;63430;53.186;6.598;2023-03-01T10:02:52;5.00;99.90
52979;DHT22;63430;53.186;6.598;2023-03-01T10:05:10;5.00;99.90
52979;DHT22;63430;53.186;6.598;2023-03-01T10:07:28;5.10;99.90
52979;DHT22;63430;53.186;6.598;2023-03-01T10:09:38;5.20;99.90
52979;DHT22;63430;53.186;6.598;2023-03-01T10:11:54;5.30;99.90
52979;DHT22;63430;53.186;6.598;2023-03-01T10:14:01;5.40;99.90
52979;DHT22;63430;53.186;6.598;2023-03-01T10:16:10;5.60;99.90
52979;DHT22;63430;53.186;6.598;2023-03-01T10:18:18;5.60;99.90
52979;DHT22;63430;53.186;6.598;2023-03-01T10:20:24;5.70;99.90
52979;DHT22;63430;53.186;6.598;2023-03-01T10:22:29;5.80;99.90
52979;DHT22;63430;53.186;6.598;2023-03-01T10:24:34;5.90;99.90
52979;DHT22;63430;53.186;6.598;2023-03-01T10:26:47;5.90;99.90
52979;DHT22;63430;53.186;6.598;2023-03-01T10:28:59;5.90;99.90
52979;DHT22;63430;53.186;6.598;2023-03-01T10:31:07;6.10;99.90
52979;DHT22;63430;53.186;6.598;2023-03-01T10:33:17;6.00;99.90
52979;DHT22;63430;53.186;6.598;2023-03-01T10:35:24;6.10;99.90
52979;DHT22;63430;53.186;6.598;2023-03-01T10:37:27;6.10;99.90
52979;DHT22;63430;53.186;6.598;2023-03-01T10:39:30;6.20;99.90
52979;DHT22;63430;53.186;6.598;2023-03-01T10:41:32;6.20;99.90
52979;DHT22;63430;53.186;6.598;2023-03-01T10:43:44;6.20;99.90
52979;DHT22;63430;53.186;6.598;2023-03-01T10:45:51;6.20;99.90
52979;DHT22;63430;53.186;6.598;2023-03-01T10:48:04;6.20;99.90
52979;DHT22;63430;53.186;6.598;2023-03-01T10:50:19;6.30;99.90
52979;DHT22;63430;53.186;6.598;2023-03-01T10:52:30;6.30;99.90
52979;DHT22;63430;53.186;6.598;2023-03-01T10:54:33;6.40;99.90
52979;DHT22;63430;53.186;6.598;2023-03-01T10:56:47;6.50;99.90
52979;DHT22;63430;53.186;6.598;2023-03-01T10:58:57;6.60;99.90
52979;DHT22;63430;53.186;6.598;2023-03-01T11:01:05;6.50;99.90
52979;DHT22;63430;53.186;6.598;2023-03-01T11:03:13;6.50;99.90
52979;DHT22;63430;53.186;6.598;2023-03-01T11:05:22;6.60;99.90
52979;DHT22;63430;53.186;6.598;2023-03-01T11:07:47;6.70;99.90
52979;DHT22;63430;53.186;6.598;2023-03-01T11:09:52;6.80;99.90
52979;DHT22;63430;53.186;6.598;2023-03-01T11:11:55;6.80;99.90
52979;DHT22;63430;53.186;6.598;2023-03-01T11:14:16;6.90;99.90
52979;DHT22;63430;53.186;6.598;2023-03-01T11:16:36;6.90;99.90
52979;DHT22;63430;53.186;6.598;2023-03-01T11:18:39;7.00;99.90
52979;DHT22;63430;53.186;6.598;2023-03-01T11:21:07;7.00;99.90
52979;DHT22;63430;53.186;6.598;2023-03-01T11:23:12;7.10;99.90
52979;DHT22;63430;53.186;6.598;2023-03-01T11:25:26;7.20;99.90
52979;DHT22;63430;53.186;6.598;2023-03-01T11:27:32;7.20;99.90
52979;DHT22;63430;53.186;6.598;2023-03-01T11:29:45;7.20;99.90
52979;DHT22;63430;53.186;6.598;2023-03-01T11:31:56;7.30;99.90
52979;DHT22;63430;53.186;6.598;2023-03-01T11:34:06;7.40;99.90
52979;DHT22;63430;53.186;6.598;2023-03-01T11:36:19;7.40;99.90
52979;DHT22;63430;53.186;6.598;2023-03-01T11:38:24;7.30;99.90
52979;DHT22;63430;53.186;6.598;2023-03-01T11:40:43;7.40;99.90
52979;DHT22;63430;53.186;6.598;2023-03-01T11:42:54;7.50;99.90
52979;DHT22;63430;53.186;6.598;2023-03-01T11:44:59;7.60;99.90
52979;DHT22;63430;53.186;6.598;2023-03-01T11:47:19;7.60;99.90
52979;DHT22;63430;53.186;6.598;2023-03-01T11:52:04;7.60;99.90
52979;DHT22;63430;53.186;6.598;2023-03-01T11:54:17;7.70;99.90
52979;DHT22;63430;53.186;6.598;2023-03-01T11:56:29;7.70;99.90
52979;DHT22;63430;53.186;6.598;2023-03-01T11:59:03;7.80;99.90
52979;DHT22;63430;53.186;6.598;2023-03-01T12:01:19;7.80;99.90
52979;DHT22;63430;53.186;6.598;2023-03-01T12:03:38;7.10;99.90
52979;DHT22;63430;53.186;6.598;2023-03-01T12:06:12;7.90;99.90
52979;DHT22;63430;53.186;6.598;2023-03-01T12:08:31;8.00;99.90
52979;DHT22;63430;53.186;6.598;2023-03-01T12:10:42;8.00;99.90
52979;DHT22;63430;53.186;6.598;2023-03-01T12:13:03;8.00;99.90
52979;DHT22;63430;53.186;6.598;2023-03-01T12:17:56;8.10;99.90
52979;DHT22;63430;53.186;6.598;2023-03-01T12:20:11;8.10;99.90
52979;DHT22;63430;53.186;6.598;2023-03-01T12:22:29;8.10;99.90
52979;DHT22;63430;53.186;6.598;2023-03-01T12:24:54;8.20;99.90
52979;DHT22;63430;53.186;6.598;2023-03-01T12:27:16;8.20;99.90
52979;DHT22;63430;53.186;6.598;2023-03-01T12:29:30;8.30;99.90
52979;DHT22;63430;53.186;6.598;2023-03-01T12:32:00;8.20;99.90
52979;DHT22;63430;53.186;6.598;2023-03-01T12:34:17;8.30;99.90
52979;DHT22;63430;53.186;6.598;2023-03-01T12:36:43;8.30;99.90
52979;DHT22;63430;53.186;6.598;2023-03-01T12:38:50;8.30;99.90
52979;DHT22;63430;53.186;6.598;2023-03-01T12:43:38;8.30;99.90
52979;DHT22;63430;53.186;6.598;2023-03-01T12:45:51;8.30;99.90
52979;DHT22;63430;53.186;6.598;2023-03-01T12:48:06;8.40;99.90
52979;DHT22;63430;53.186;6.598;2023-03-01T12:50:17;8.40;99.90
52979;DHT22;63430;53.186;6.598;2023-03-01T12:52:29;8.50;99.90
52979;DHT22;63430;53.186;6.598;2023-03-01T12:54:36;8.50;99.90
52979;DHT22;63430;53.186;6.598;2023-03-01T12:56:39;8.60;99.90
52979;DHT22;63430;53.186;6.598;2023-03-01T12:58:48;8.60;99.90
52979;DHT22;63430;53.186;6.598;2023-03-01T13:01:05;8.70;99.90
52979;DHT22;63430;53.186;6.598;2023-03-01T13:03:22;8.70;99.90
52979;DHT22;63430;53.186;6.598;2023-03-01T13:05:37;8.70;99.90
52979;DHT22;63430;53.186;6.598;2023-03-01T13:07:51;8.70;99.90
52979;DHT22;63430;53.186;6.598;2023-03-01T13:10:03;9.50;99.90
52979;DHT22;63430;53.186;6.598;2023-03-01T13:14:45;8.60;99.90
52979;DHT22;63430;53.186;6.598;2023-03-01T13:16:49;8.50;99.90
52979;DHT22;63430;53.186;6.598;2023-03-01T13:19:06;8.60;99.90
52979;DHT22;63430;53.186;6.598;2023-03-01T13:21:09;8.60;99.90
52979;DHT22;63430;53.186;6.598;2023-03-01T13:23:25;8.60;99.90
52979;DHT22;63430;53.186;6.598;2023-03-01T13:25:29;8.60;99.90
52979;DHT22;63430;53.186;6.598;2023-03-01T13:27:43;8.60;99.90
52979;DHT22;63430;53.186;6.598;2023-03-01T13:29:59;8.60;99.90
52979;DHT22;63430;53.186;6.598;2023-03-01T13:32:19;8.60;99.90
52979;DHT22;63430;53.186;6.598;2023-03-01T13:34:47;8.60;99.90